Terminal Aerodrome Forecast
Issued by NWS

Home | Current Version | Previous Version | Text Only | Print | Product List | Glossary Off
Versions: 1 2 3 4 5 6 7 8 9 10 11 12 13 14 15 16 17

000
FTUS43 KGRB 231700 RRA
TAFCWA
TAF
KCWA 231741Z 2318/2418 15007KT P6SM SCT120 OVC250
     FM232100 14008KT P6SM SCT070 BKN100
     FM240200 12006KT P6SM BKN040 OVC070
     FM240600 11007KT P6SM SCT025 OVC040
      TEMPO 2407/2411 5SM -SHRA BKN025
     FM241100 11013G21KT 4SM -SHRA BR OVC025
      TEMPO 2414/2418 2SM SHRA BR OVC020=

USA.gov is the U.S. government's official web portal to all federal, state and local government web resources and services.